Airfield :
LOGIN :

Register | Disclaimer

   EN    FR    IT 

 










Legend :    VFR   Marginal VFR   IFR   Intensive IFR   Very Intensive IFR
Visi :
Ceiling :
>= 8 km
>= 3000ft
5 to 8 km
1000 to 3000 ft
1500m to 5 km
500 to 1000 ft
800 to 1500m
200 to 500 ft
< 800m
< 200 ft
Symbols :   Thunderstorms  Fog  Heavy snow  Heavy precipitations  Wind > 20 kt
SIGMETs :     Misc.  Thunderstorms  Icing  Turbulence  Mountain Waves  Volcanic Ashes






- Airport Elevation : 2945 ft
- IATA code : RGS


LEBG - Burgos

CURRENT METAR :
  • 070100Z AUTO 14004KT 9999 -RA BKN056 BKN065 09/08 Q1023

EXPIRED METARs :
  • 070030Z AUTO 15005KT 9999 SCT048 BKN060 09/08 Q1023
  • 070000Z AUTO 15006KT 9999 BKN047 BKN057 09/08 Q1023
  • 062330Z AUTO 15005KT 9999 -RA BKN048 OVC058 09/08 Q1023
  • 062300Z AUTO 00000KT 8000 -RA BKN048 BKN058 09/09 Q1023
  • 062230Z AUTO 05002KT 9000 BKN050 09/08 Q1023
  • 062200Z AUTO VRB01KT 9999 FEW020 BKN045 10/08 Q1023

TAF TAF LEBG
Valid from the 06 at 18:00 until the 07 at 03:00 UTC


061700Z 0618/0703 VRB05KT 9999 BKN030
PROB40
TEMPO 0618/0621 3000 RA SHRA SCT030TCU



MET'MAP, your aeronautical weather chart ! - Copyright ORBIFLY December 2007 - Disclaimer

ORBIFLY MET'MAP TEAM :

Programming & Development : Alexandra Zaïnal
Concept & original design : Baudouin d'Aumeries
Assistance for programming : Marc-Olivier Méhu
Technical & hardware support : Manuel Goepfert

Contact : metmap@orbifly.com




SOURCES & CREDITS :

   NOAA